地図

経路データ

SID SEASON NUMBER BASIN SUBBASIN NAME ISO_TIME NATURE LAT LON WMO_WIND WMO_PRES WMO_AGENCY TRACK_TYPE DIST2LAND LANDFALL IFLAG USA_AGENCY USA_ATCF_ID USA_LAT USA_LON USA_RECORD USA_STATUS USA_WIND USA_PRES USA_SSHS USA_R34_NE USA_R34_SE USA_R34_SW USA_R34_NW USA_R50_NE USA_R50_SE USA_R50_SW USA_R50_NW USA_R64_NE USA_R64_SE USA_R64_SW USA_R64_NW USA_POCI USA_ROCI USA_RMW USA_EYE TOKYO_LAT TOKYO_LON TOKYO_GRADE TOKYO_WIND TOKYO_PRES TOKYO_R50_DIR TOKYO_R50_LONG TOKYO_R50_SHORT TOKYO_R30_DIR TOKYO_R30_LONG TOKYO_R30_SHORT TOKYO_LAND CMA_LAT CMA_LON CMA_CAT CMA_WIND CMA_PRES HKO_LAT HKO_LON HKO_CAT HKO_WIND HKO_PRES NEWDELHI_LAT NEWDELHI_LON NEWDELHI_GRADE NEWDELHI_WIND NEWDELHI_PRES NEWDELHI_CI NEWDELHI_DP NEWDELHI_POCI REUNION_LAT REUNION_LON REUNION_TYPE REUNION_WIND REUNION_PRES REUNION_TNUM REUNION_CI REUNION_RMW REUNION_R34_NE REUNION_R34_SE REUNION_R34_SW REUNION_R34_NW REUNION_R50_NE REUNION_R50_SE REUNION_R50_SW REUNION_R50_NW REUNION_R64_NE REUNION_R64_SE REUNION_R64_SW REUNION_R64_NW BOM_LAT BOM_LON BOM_TYPE BOM_WIND BOM_PRES BOM_TNUM BOM_CI BOM_RMW BOM_R34_NE BOM_R34_SE BOM_R34_SW BOM_R34_NW BOM_R50_NE BOM_R50_SE BOM_R50_SW BOM_R50_NW BOM_R64_NE BOM_R64_SE BOM_R64_SW BOM_R64_NW BOM_ROCI BOM_POCI BOM_EYE BOM_POS_METHOD BOM_PRES_METHOD NADI_LAT NADI_LON NADI_CAT NADI_WIND NADI_PRES WELLINGTON_LAT WELLINGTON_LON WELLINGTON_WIND WELLINGTON_PRES DS824_LAT DS824_LON DS824_STAGE DS824_WIND DS824_PRES TD9636_LAT TD9636_LON TD9636_STAGE TD9636_WIND TD9636_PRES TD9635_LAT TD9635_LON TD9635_WIND TD9635_PRES TD9635_ROCI NEUMANN_LAT NEUMANN_LON NEUMANN_CLASS NEUMANN_WIND NEUMANN_PRES MLC_LAT MLC_LON MLC_CLASS MLC_WIND MLC_PRES USA_GUST BOM_GUST BOM_GUST_PER REUNION_GUST REUNION_GUST_PER USA_SEAHGT USA_SEARAD_NE USA_SEARAD_SE USA_SEARAD_SW USA_SEARAD_NW STORM_SPEED STORM_DIR
1977083S15125 1977 33 SI WA LEO 1977-03-24 00:00:00 TS -15.0000 124.500 main 39 34 O________OO___ jtwc_sh SH231977 -15.0000 124.500 25 -1 -15.0000 124.500 TC 25 -15.0000 124.500 1 25 7 206
1977083S15125 1977 33 SI WA LEO 1977-03-24 01:00:00 TS -15.1120 124.445 25 1005 bom main 44 39 P_____O__PP___ SH231977 -15.0312 124.388 25 -1 -15.6000 124.800 20 25 1005 2.00000 -15.0312 124.388 TC 25 -15.0297 124.380 1 25 7 239
1977083S15125 1977 33 SI WA LEO 1977-03-24 03:00:00 TS -15.1714 124.208 main 49 49 P_____P__PP___ SH231977 -15.0951 124.160 27 -1 -15.5211 124.454 20 25 1003 -15.0951 124.160 TC 27 -15.0909 124.140 1 27 7 255
1977083S15125 1977 33 SI WA LEO 1977-03-24 04:00:00 TS -15.2014 124.088 25 1003 bom main 55 54 P_____O__PP___ SH231977 -15.1284 124.043 28 -1 -15.5000 124.300 20 25 1003 2.00000 -15.1284 124.043 TC 28 -15.1235 124.020 1 28 7 248
1977083S15125 1977 33 SI WA LEO 1977-03-24 06:00:00 TS -15.2995 123.886 main 63 63 O_____P__OP_O_ jtwc_sh SH231977 -15.2000 123.800 30 -1 -15.5024 124.036 20 28 1000 -15.2000 123.800 TC 30 -15.1953 123.775 1 30 -15.5000 124.300 TC 25 1001 7 246
1977083S15125 1977 33 SI WA LEO 1977-03-24 07:00:00 TS -15.3374 123.779 30 1000 bom main 72 72 P_____O__PP_P_ SH231977 -15.2390 123.672 30 -1 -15.5000 123.900 20 30 1000 2.50000 -15.2390 123.672 TC 30 -15.2355 123.650 1 30 -15.4629 124.151 TC 26 1000 7 258
1977083S15125 1977 33 SI WA LEO 1977-03-24 09:00:00 TS -15.3734 123.512 main 92 92 P_____P__PP_P_ SH231977 -15.3275 123.407 32 -1 -15.4230 123.564 20 30 998 -15.3275 123.407 TC 32 -15.3270 123.397 1 32 -15.4027 123.852 TC 30 999 8 261
1977083S15125 1977 33 SI WA LEO 1977-03-24 10:00:00 TS -15.3978 123.383 30 998 bom main 95 94 P_____O__PP_P_ SH231977 -15.3787 123.272 33 -1 -15.4000 123.400 20 30 998 2.50000 -15.3787 123.272 TC 33 -15.3794 123.267 1 33 -15.3865 123.702 TC 31 998 8 256
1977083S15125 1977 33 SI WA LEO 1977-03-24 12:00:00 TS -15.4746 123.105 main 101 101 O_____P__OO_O_ jtwc_sh SH231977 -15.5000 123.000 35 0 -15.4479 123.128 20 33 995 -15.5000 123.000 TC 35 -15.5000 123.000 2 35 -15.4000 123.400 TC 35 997 8 251
1977083S15125 1977 33 SI WA LEO 1977-03-24 13:00:00 TS -15.5316 122.969 35 995 bom main 108 92 P_____O__PP_P_ SH231977 -15.5719 122.869 35 0 -15.5000 123.000 30 35 995 3.00000 -15.5719 122.869 TC 35 -15.5690 122.863 2 35 -15.4355 123.247 TC 36 996 9 243
1977083S15125 1977 33 SI WA LEO 1977-03-24 15:00:00 TS -15.6715 122.697 main 92 92 P_____P__PP_P_ SH231977 -15.7349 122.607 35 0 -15.6200 122.741 30 38 993 -15.7349 122.607 TC 35 -15.7222 122.582 2 36 -15.5550 122.943 TC 40 994 9 241
1977083S15125 1977 33 SI WA LEO 1977-03-24 16:00:00 TS -15.7530 122.558 40 993 bom main 84 84 P_____O__PP_P_ SH231977 -15.8224 122.475 35 0 -15.7000 122.600 30 40 993 3.00000 -15.8224 122.475 TC 35 -15.8047 122.439 2 36 -15.6316 122.792 TC 41 993 10 238
1977083S15125 1977 33 SI WA LEO 1977-03-24 18:00:00 TS -15.9300 122.269 main 92 92 O_____P__OP_O_ jtwc_sh SH231977 -16.0000 122.200 35 0 -15.9025 122.264 30 43 992 -16.0000 122.200 TC 35 -15.9775 122.150 2 37 -15.8000 122.500 TC 45 992 10 238
1977083S15125 1977 33 SI WA LEO 1977-03-24 19:00:00 TS -16.0160 122.121 45 992 bom main 100 100 P_____O__PP_P_ SH231977 -16.0860 122.053 35 0 -16.0000 122.100 30 45 992 3.00000 -16.0860 122.053 TC 35 -16.0662 122.006 2 37 -15.8776 122.361 TC 45 991 10 239
1977083S15125 1977 33 SI WA LEO 1977-03-24 21:00:00 TS -16.1804 121.832 main 108 108 P_____P__PP_P_ SH231977 -16.2575 121.750 37 0 -16.1308 121.828 30 45 991 -16.2575 121.750 TC 37 -16.2441 121.719 2 38 -16.0424 122.092 TC 45 991 10 239
1977083S15125 1977 33 SI WA LEO 1977-03-24 22:00:00 TS -16.2629 121.689 45 991 bom main 108 108 P_____O__PP_P_ SH231977 -16.3412 121.598 38 0 -16.2000 121.700 30 45 991 3.00000 -16.3412 121.598 TC 38 -16.3316 121.577 2 39 -16.1278 121.961 TC 45 990 10 238
1977083S15125 1977 33 SI WA LEO 1977-03-25 00:00:00 TS -16.4337 121.406 main 123 117 O_____P__OO_O_ jtwc_sh SH231977 -16.5000 121.300 40 0 -16.4025 121.433 30 48 990 -16.5000 121.300 TC 40 -16.5000 121.300 2 40 -16.3000 121.700 TC 45 990 10 238
1977083S15125 1977 33 SI WA LEO 1977-03-25 01:00:00 TS -16.5125 121.267 50 990 bom main 125 125 P_____O__PP_P_ SH231977 -16.5723 121.158 41 0 -16.5000 121.300 30 50 990 3.50000 -16.5723 121.158 TC 41 -16.5721 121.161 2 42 -16.3859 121.567 TC 46 989 9 241
1977083S15125 1977 33 SI WA LEO 1977-03-25 03:00:00 TS -16.6548 120.996 main 144 144 P_____P__PP_P_ SH231977 -16.7074 120.885 45 0 -16.6388 121.033 30 50 987 -16.7074 120.885 TC 45 -16.7102 120.886 2 46 -16.5574 121.300 TC 50 988 9 242
1977083S15125 1977 33 SI WA LEO 1977-03-25 04:00:00 TS -16.7224 120.863 50 987 bom main 153 153 P_____O__PP_P_ SH231977 -16.7720 120.753 46 0 -16.7000 120.900 30 50 987 3.50000 -16.7720 120.753 TC 46 -16.7770 120.751 2 48 -16.6412 121.167 TC 51 987 9 242
1977083S15125 1977 33 SI WA LEO 1977-03-25 06:00:00 TS -16.8568 120.604 main 175 175 O_____P__OP_O_ jtwc_sh SH231977 -16.9000 120.500 50 0 -16.8333 120.633 30 53 984 -16.9000 120.500 TC 50 -16.9075 120.490 2 52 -16.8000 120.900 TC 55 986 8 242
1977083S15125 1977 33 SI WA LEO 1977-03-25 07:00:00 TS -16.9232 120.473 55 984 bom main 186 186 P_____O__PP_P_ SH231977 -16.9666 120.372 52 0 -16.9000 120.500 30 55 984 4.00000 -16.9666 120.372 TC 52 -16.9719 120.364 2 54 -16.8698 120.759 TC 55 985 8 242
1977083S15125 1977 33 SI WA LEO 1977-03-25 09:00:00 TS -17.0545 120.218 main 209 209 P_____P__PP_P_ SH231977 -17.1000 120.127 57 0 -17.0333 120.225 30 58 982 -17.1000 120.127 TC 57 -17.1009 120.124 2 58 -17.0000 120.477 TC 57 983 8 241
1977083S15125 1977 33 SI WA LEO 1977-03-25 10:00:00 TS -17.1204 120.098 60 982 bom main 219 219 P_____O__PP_P_ SH231977 -17.1666 120.012 59 0 -17.1000 120.100 30 60 982 4.00000 -17.1666 120.012 TC 59 -17.1662 120.010 2 60 -17.0642 120.343 TC 58 982 8 238
1977083S15125 1977 33 SI WA LEO 1977-03-25 12:00:00 TS -17.2542 119.881 main 235 235 O_____P__OO_O_ jtwc_sh SH231977 -17.3000 119.800 65 1 -17.2254 119.887 30 63 980 -17.3000 119.800 TC 65 -17.3000 119.800 4 65 -17.2000 120.100 TC 60 981 7 236
1977083S15125 1977 33 SI WA LEO 1977-03-25 13:00:00 TS -17.3256 119.784 65 980 bom main 246 241 P_____O__PP_P_ SH231977 -17.3640 119.703 66 1 -17.3000 119.800 40 65 980 4.50000 -17.3640 119.703 TC 66 -17.3654 119.696 4 66 -17.2802 119.999 TC 61 980 7 229
1977083S15125 1977 33 SI WA LEO 1977-03-25 15:00:00 TS -17.4807 119.614 main 253 253 P_____P__PP_P_ SH231977 -17.4924 119.527 70 1 -17.5024 119.669 40 68 977 -17.4924 119.527 TC 70 -17.4973 119.503 4 70 -17.4499 119.827 TC 65 978 7 226
1977083S15125 1977 33 SI WA LEO 1977-03-25 16:00:00 TS -17.5589 119.535 70 977 bom main 258 258 P_____O__PP_P_ SH231977 -17.5587 119.448 71 1 -17.6000 119.600 40 70 977 4.50000 -17.5587 119.448 TC 71 -17.5647 119.414 4 71 -17.5357 119.750 TC 66 977 6 225
1977083S15125 1977 33 SI WA LEO 1977-03-25 18:00:00 TS -17.7073 119.375 main 260 251 O_____P__OP_O_ jtwc_sh SH231977 -17.7000 119.300 75 1 -17.7388 119.398 40 73 974 -17.7000 119.300 TC 75 -17.7048 119.252 4 75 -17.7000 119.600 TC 70 975 6 227
1977083S15125 1977 33 SI WA LEO 1977-03-25 19:00:00 TS -17.7758 119.293 75 973 bom main 251 243 P_____O__PP_P_ SH231977 -17.7724 119.222 76 1 -17.8000 119.300 40 75 973 4.50000 -17.7724 119.222 TC 76 -17.7783 119.179 4 76 -17.7671 119.509 TC 71 973 6 226
1977083S15125 1977 33 SI WA LEO 1977-03-25 21:00:00 TS -17.9168 119.146 main 246 234 P_____P__PP_P_ SH231977 -17.9275 119.077 80 1 -17.9333 119.161 40 78 970 -17.9275 119.077 TC 80 -17.9349 119.050 4 80 -17.8925 119.327 TC 75 971 6 223
1977083S15125 1977 33 SI WA LEO 1977-03-25 22:00:00 TS -17.9913 119.080 80 969 bom main 234 223 P_____O__PP_P_ SH231977 -18.0121 119.012 81 1 -18.0000 119.100 40 80 969 5.00000 -18.0121 119.012 TC 81 -18.0188 118.994 4 81 -17.9563 119.243 TC 76 969 6 217
1977083S15125 1977 33 SI WA LEO 1977-03-26 00:00:00 TS -18.1529 118.960 main 212 212 O_____P__OO_O_ jtwc_sh SH231977 -18.2000 118.900 85 2 -18.1175 118.959 40 80 966 -18.2000 118.900 TC 85 -18.2000 118.900 4 85 -18.1000 119.100 TC 80 967 6 213
1977083S15125 1977 33 SI WA LEO 1977-03-26 01:00:00 TS -18.2501 118.906 80 965 bom main 202 181 P_____O__PP_P_ SH231977 -18.3052 118.850 85 2 -18.2000 118.900 40 80 965 5.00000 -18.3052 118.850 TC 85 -18.3048 118.850 4 85 -18.1859 119.047 TC 80 966 7 202
1977083S15125 1977 33 SI WA LEO 1977-03-26 03:00:00 TS -18.4781 118.821 main 181 170 P_____P__PP_P_ SH231977 -18.5350 118.770 87 2 -18.4637 118.828 40 83 963 -18.5350 118.770 TC 87 -18.5301 118.767 4 86 -18.3775 118.970 TC 82 964 7 198
1977083S15125 1977 33 SI WA LEO 1977-03-26 04:00:00 TS -18.5986 118.788 85 963 bom main 170 148 P_____O__PP_P_ SH231977 -18.6558 118.740 88 2 -18.6000 118.800 40 85 963 5.00000 -18.6558 118.740 TC 88 -18.6487 118.735 4 86 -18.4812 118.942 TC 83 963 7 192
1977083S15125 1977 33 SI WA LEO 1977-03-26 06:00:00 TS -18.8329 118.736 main 151 140 O_____P__OP_O_ jtwc_sh SH231977 -18.9000 118.700 90 2 -18.8054 118.725 40 85 962 -18.9000 118.700 TC 90 -18.8923 118.688 4 87 -18.7000 118.900 TC 85 962 7 190
1977083S15125 1977 33 SI WA LEO 1977-03-26 07:00:00 TS -18.9491 118.714 85 962 bom main 140 109 P_____O__PP_P_ SH231977 -19.0219 118.683 90 2 -18.9000 118.700 40 85 962 5.00000 -19.0219 118.683 TC 90 -19.0152 118.674 4 87 -18.8136 118.870 TC 85 961 7 186
1977083S15125 1977 33 SI WA LEO 1977-03-26 09:00:00 TS -19.1825 118.696 main 109 98 P_____P__PP_P_ SH231977 -19.2650 118.670 90 2 -19.0921 118.695 40 85 961 -19.2650 118.670 TC 90 -19.2583 118.664 4 88 -19.0500 118.820 TC 85 961 7 0
1977083S15125 1977 33 SI WA LEO 1977-03-26 10:00:00 TS -19.2988 118.697 85 961 bom main 98 79 P_____O__PP_P_ SH231977 -19.3825 118.673 90 2 -19.2000 118.700 40 85 961 5.00000 -19.3825 118.673 TC 90 -19.3763 118.669 4 89 -19.1691 118.804 TC 85 960 7 0
1977083S15125 1977 33 SI WA LEO 1977-03-26 12:00:00 TS -19.5282 118.714 main 79 69 O_____P__OO_O_ jtwc_sh SH231977 -19.6000 118.700 90 2 -19.4691 118.684 40 88 960 -19.6000 118.700 TC 90 -19.6000 118.700 4 90 -19.4000 118.800 TC 85 960 7 173
1977083S15125 1977 33 SI WA LEO 1977-03-26 13:00:00 TS -19.6322 118.732 90 960 bom main 69 45 P_____O__PP_P_ SH231977 -19.6947 118.717 88 2 -19.6000 118.700 40 90 960 5.50000 -19.6947 118.717 TC 88 -19.6979 118.711 4 87 -19.5110 118.814 TC 80 960 6 163
1977083S15125 1977 33 SI WA LEO 1977-03-26 15:00:00 TS -19.8189 118.803 main 45 38 P_____P__PP_P_ SH231977 -19.8650 118.770 85 2 -19.8134 118.830 40 90 960 -19.8650 118.770 TC 85 -19.8825 118.752 4 83 -19.7225 118.870 TC 72 960 6 158
1977083S15125 1977 33 SI WA LEO 1977-03-26 16:00:00 TS -19.9040 118.848 90 960 bom main 38 23 P_____O__PP_P_ SH231977 -19.9442 118.807 83 2 -19.9000 118.900 40 90 960 5.50000 -19.9442 118.807 TC 83 -19.9700 118.783 4 81 -19.8212 118.909 TC 68 960 5 153
1977083S15125 1977 33 SI WA LEO 1977-03-26 18:00:00 TS -20.0605 118.935 main 15 10 O_____P__OP_O_ jtwc_sh SH231977 -20.1000 118.900 80 1 -20.0261 118.947 40 90 963 -20.1000 118.900 TC 80 -20.1370 118.865 4 77 -20.0000 119.000 TC 60 961 5 152
1977083S15125 1977 33 SI WA LEO 1977-03-26 19:00:00 TS -20.1382 118.981 90 965 bom main 10 0 P_____O__PP_P_ SH231977 -20.1833 118.947 77 1 -20.1000 119.000 40 90 965 5.50000 -20.1833 118.947 TC 77 -20.2172 118.918 4 75 -20.0676 119.037 TC 57 963 124 124 6 149
1977083S15125 1977 33 SI WA LEO 1977-03-26 20:01:00 TS -20.2197 119.040 90 bom main 0 0 P_____I__PP_P_ SH231977 -20.2680 119.002 74 1 -20.2000 119.100 40 90 967 -20.2680 119.002 TC 74 -20.2971 118.979 4 73 -20.1283 119.077 TC 54 965 124 124 6 146
1977083S15125 1977 33 SI WA LEO 1977-03-26 21:00:00 TS -20.2912 119.096 main 0 0 P_____P__PP_P_ SH231977 -20.3499 119.063 72 1 -20.2545 119.162 40 82 969 -20.3499 119.063 TC 72 -20.3730 119.046 4 71 -20.1849 119.120 TC 52 967 5 144
1977083S15125 1977 33 SI WA LEO 1977-03-26 22:00:00 TS -20.3632 119.154 75 972 bom main 0 0 P_____O__PP_P_ SH231977 -20.4333 119.132 70 1 -20.3000 119.200 40 75 972 -20.4333 119.132 TC 70 -20.4492 119.122 4 69 -20.2459 119.171 TC 50 969 6 143
1977083S15125 1977 33 SI WA LEO 1977-03-27 00:00:00 TS -20.5292 119.291 main 0 0 O_____P__OO_O_ jtwc_sh SH231977 -20.6000 119.300 65 1 -20.4749 119.247 40 68 977 -20.6000 119.300 TC 65 -20.6000 119.300 4 65 -20.4000 119.300 TC 45 974 7 143
1977083S15125 1977 33 SI WA LEO 1977-03-27 01:00:00 TS -20.6333 119.376 65 980 bom main 0 0 P_____O__PP_P_ SH231977 -20.6859 119.394 62 0 -20.6000 119.300 40 65 980 -20.6859 119.394 TC 62 -20.6858 119.396 4 62 -20.5262 119.377 TC 44 976 9 140
1977083S15125 1977 33 SI WA LEO 1977-03-27 03:00:00 TS -20.8663 119.594 main 0 0 P_____P__PP_P_ SH231977 -20.8574 119.613 57 0 -20.9462 119.550 40 58 984 -20.8574 119.613 TC 57 -20.8567 119.615 4 57 -20.8150 119.562 TC 42 980 9 137
1977083S15125 1977 33 SI WA LEO 1977-03-27 04:00:00 TS -20.9782 119.719 55 986 bom main 0 0 P_____O__PP_P_ SH231977 -20.9412 119.735 55 0 -21.1000 119.700 30 55 986 -20.9412 119.735 TC 55 -20.9406 119.737 4 55 -20.9590 119.668 TC 41 982 9 129
1977083S15125 1977 33 SI WA LEO 1977-03-27 06:00:00 TS -21.1600 119.978 main 0 0 O_____P__OP_O_ jtwc_sh SH231977 -21.1000 120.000 50 0 -21.2575 119.967 30 48 989 -21.1000 120.000 TC 50 -21.1026 120.002 4 50 -21.2000 119.900 TC 40 987 9 124
1977083S15125 1977 33 SI WA LEO 1977-03-27 07:00:00 TS -21.2287 120.111 45 991 bom main 0 0 P_____O__PP_P_ SH231977 -21.1750 120.139 47 0 -21.3000 120.100 30 45 991 -21.1750 120.139 TC 47 -21.1795 120.143 4 47 -21.2676 120.019 TC 38 987 9 115
1977083S15125 1977 33 SI WA LEO 1977-03-27 09:00:00 TS -21.3428 120.391 main 0 0 P_____P__PP_P_ SH231977 -21.3150 120.435 42 0 -21.3721 120.367 30 41 992 -21.3150 120.435 TC 42 -21.3222 120.437 4 42 -21.3449 120.278 TC 35 990 9 112
1977083S15125 1977 33 SI WA LEO 1977-03-27 10:00:00 TS -21.3904 120.535 40 993 bom main 0 0 P_____O__PP_P_ SH231977 -21.3800 120.589 40 0 -21.4000 120.500 30 40 993 -21.3800 120.589 TC 40 -21.3868 120.590 4 40 -21.3659 120.415 TC 33 990 9 108
1977083S15125 1977 33 SI WA LEO 1977-03-27 12:00:00 TS -21.4778 120.828 main 0 0 O_____P__OO_O_ jtwc_sh SH231977 -21.5000 120.900 35 0 -21.4666 120.767 30 36 994 -21.5000 120.900 TC 35 -21.5000 120.900 2 35 -21.4000 120.700 TC 30 993 9 108
1977083S15125 1977 33 SI WA LEO 1977-03-27 13:00:00 TS -21.5249 120.970 35 995 bom main 0 0 P_____O__PP_P_ SH231977 -21.5635 121.047 34 0 -21.5000 120.900 30 35 995 -21.5635 121.047 TC 34 -21.5475 121.057 2 34 -21.4333 120.842 TC 30 993 8 109
1977083S15125 1977 33 SI WA LEO 1977-03-27 15:00:00 TS -21.6111 121.256 main 0 0 P_____P__PP_P_ SH231977 -21.6798 121.342 32 -1 -21.5666 121.159 30 35 996 -21.6798 121.342 TC 32 -21.6257 121.371 2 33 -21.4999 121.135 TC 30 995 8 107
1977083S15125 1977 33 SI WA LEO 1977-03-27 16:00:00 TS -21.6492 121.403 35 997 bom main 0 0 P_____O__PP_P_ SH231977 -21.7290 121.492 31 -1 -21.6000 121.300 30 35 997 -21.7290 121.492 TC 31 -21.6574 121.529 2 33 -21.5332 121.287 TC 30 995 9 104
1977083S15125 1977 33 SI WA LEO 1977-03-27 18:00:00 TS -21.7138 121.712 main 0 0 O_____P__OP_O_ jtwc_sh SH231977 -21.8000 121.800 30 -1 -21.6746 121.628 30 31 998 -21.8000 121.800 TC 30 -21.7084 121.845 2 32 -21.6000 121.600 TC 30 997 9 101
1977083S15125 1977 33 SI WA LEO 1977-03-27 19:00:00 TS -21.7370 121.873 30 999 bom main 0 0 P_____O__PP_P_ SH231977 -21.8188 121.960 30 -1 -21.7000 121.800 20 30 999 -21.8188 121.960 TC 30 -21.7287 122.004 2 32 -21.6334 121.762 TC 30 997 9 96
1977083S15125 1977 33 SI WA LEO 1977-03-27 21:00:00 TS -21.7588 122.198 main 0 0 P_____P__PP_P_ SH231977 -21.8279 122.290 30 -1 -21.6975 122.133 20 26 1000 -21.8279 122.290 TC 30 -21.7618 122.322 2 31 -21.7003 122.092 TC 30 999 9 94
1977083S15125 1977 33 SI WA LEO 1977-03-27 22:00:00 TS -21.7656 122.363 25 1001 bom main 0 0 P_____O__PP_P_ SH231977 -21.8221 122.459 30 -1 -21.7000 122.300 20 25 1001 -21.8221 122.459 TC 30 -21.7756 122.481 2 30 -21.7337 122.261 TC 30 999 9 94
1977083S15125 1977 33 SI WA LEO 1977-03-28 00:00:00 TS -21.7877 122.695 main 0 0 O_____P__OO_O_ jtwc_sh SH231977 -21.8000 122.800 30 -1 -21.7569 122.633 20 25 1001 -21.8000 122.800 TC 30 -21.8000 122.800 1 30 -21.8000 122.600 TC 30 1001 8 95
1977083S15125 1977 33 SI WA LEO 1977-03-28 01:00:00 NR -21.8000 122.800 25 1002 bom main 0 ______O_______ SH231977 -1 -21.8000 122.800 20 25 1002 TC 1 TC 6 97

IBTrACS Databaseについて

本データベースは、米国NOAAが公開する1842年以降の世界の熱帯低気圧のベストトラックデータアーカイブInternational Best Track Archive for Climate Stewardship (IBTrACS)を、ウェブで閲覧しやすい形式に変換したものです。

最終更新日:2021-12-03